LiveATC.Net - Listen to live air traffic control over the Internet! Contact LiveATC.net for advertising information

Find LiveATC Audio Streams


Airport/ARTCC Code

Frequency
(e.g., 124.400, 128.75)
Site-wide search

Browse LiveATC Feeds
LiveATC Coverage Map
Top 50 LiveATC Feeds
Bad Weather Areas

LiveATC FAQ
Offer a LiveATC Feed
Contact LiveATC.net
Press Inquiries

LiveATC on iPhone
LiveATC on Android

LiveATC Mobile
(Mobile browser)

ATC Audio Archives
Interesting Recordings

LiveATC Forums

Home Page
About LiveATC.net
Make a Donation
LiveATC Bookstore

Terms of Use
Privacy Policy

ATC/Radar Sites
U.S. ARTCC Freqs
Canadian Air Freqs

AIRMETs/SIGMETs

FAA Airport Status
Nat'l Airspace Status
Arrival Demand Charts


Server Software By:
Icecast.org
Liquidsoap


Current Potentially Bad Weather Airports
(updated every 30 minutes - sorted alphabetically by ICAO code)



This page lists LiveATC.net airport areas that may be interesting to listen to because of challenging flying (weather) conditions. Challenging weather conditions include low ceilings, limited visibility, high or gusty winds, or thunderstorms. This is an evolving new feature and comments are welcome.

Updated: Thu Apr 17 18:10:02 UTC 2014
Click on airport name to go to that airport area's feeds.

BIKF Radar
WX MAP UNAVAILABLEBIKF 171730Z 15033G43KT 4000 -DZRA FEW004 BKN006 OVC009 05/05 Q0997
BIRK Gnd/Twr/App/Misc
WX MAP UNAVAILABLEBIRK 171700Z 13026G38KT 9999 -RA SCT018 BKN026 OVC040 05/02 Q1000
CYEG Ground/Tower
WX MAP UNAVAILABLECYEG 171728Z 11016KT 3SM -SHSN DRSN OVC008 M03/M04 A2985 RMK SC8 SLP144
CYQT Gnd/Twr
cyqtCYQT 171752Z 06017KT 3/4SM R07/5500FT/N -SN DRSN BKN005 OVC012 M00/M01 A3023 RMK SF5SC3 VIS VRB 1/2-1 SLP249
CYTS CTAF/FSS/Area
WX MAP UNAVAILABLECYTS 171700Z 14012G18KT 10SM -SN OVC026 00/M05 A3047 RMK SC8 SLP337
CYYC Twr/App/Center
WX MAP UNAVAILABLECYYC 171700Z 17006KT 4SM BR OVC004 M01/M02 A2975 RMK SC8 SLP123
ENTC Tower/App
WX MAP UNAVAILABLEENTC 171750Z 22008KT 9999 FEW007 SCT030 02/M01 Q0996 TEMPO 2000 SHSNRA VV008 RMK WIND 2600FT 23018G29KT
KFHR CTAF
WX MAP UNAVAILABLEKFHR 171753Z AUTO 11004KT 10SM -RA OVC008 11/09 A2980 RMK AO2 RAB08E19B40 CIG 007V011 SLP091 P0000 60000 T01060094 10106 20089 56013
KFLL Ground/Tower
kfllKFLL 171753Z 06005KT 10SM FEW015 SCT060 BKN100 BKN250 25/23 A3012 RMK AO2 LTG DSNT W AND NW TSE23 SLP198 60044 T02500228 10278 20228 58004
KGKY Ground/Tower
kgkyKGKY 171753Z 10006KT 2 1/2SM -RA BR OVC023 14/13 A3016 RMK AO2 SFC VIS 3 RAB10 SLP209 P0000 60000 T01390128 10156 20106 50008
KGTU Gnd/Twr
kgtuKGTU 171751Z 09003KT 2 1/2SM BR OVC014 16/14 A3012
KHIO Ground/Tower
WX MAP UNAVAILABLEKHIO 171753Z 16006KT 2 1/2SM -RA BR BKN004 BKN040 OVC055 11/10 A2987 RMK AO2 SLP114 P0002 60016 T01110100 10111 20100 56008
KMIA Approach
kmiaKMIA 171753Z 06010KT 10SM SCT026 BKN080 BKN150 BKN250 25/22 A3012 RMK AO2 LTG DSNT SW AND NW RAB14E45 SLP201 CB DSNT N AND W P0000 60014 T02500217 10278 20244 58003
KOPF ATIS
kopfKOPF 171753Z 08007KT 10SM FEW035 SCT043 24/21 A3012 RMK AO2 LTG DSNT NW RAB06E17 SLP200 P0000 60000 T02440211 10278 20239 58009
KPDX Portland Approach #1
kpdxKPDX 171753Z 16007KT 10SM -RA OVC009 12/10 A2988 RMK AO2 SLP119 P0003 60011 T01170100 10117 20100 58007
KRST Gnd/Twr/App
krstKRST 171754Z 32014KT 6SM BR OVC008 01/M02 A3023 RMK AO2 SLP250 I6000 T00061017 10011 21006 50018
KSBP Gnd/Twr
ksbpKSBP 171756Z 09003KT 4SM BR OVC009 14/12 A2993 RMK AO2 SLP134 T01440117 10150 20111 51015
KSPB CTAF
kspbKSPB 171753Z AUTO 13007KT 8SM -RA OVC008 12/11 A2987 RMK AO2 CIG 005V010 SLP113 P0002 60012 T01170106 10117 20106 56008
KTMB Del/Gnd/Twr
ktmbKTMB 171753Z 10011KT 10SM FEW018 SCT048 26/22 A3012 RMK AO2 LTG DSNT W SLP197 60010 T02560222 10294 20244 58004